sensor_id;sensor_type;location;lat;lon;timestamp;P1;durP1;ratioP1;P2;durP2;ratioP2
22924;SDS011;11628;51.072;3.712;2023-04-01T00:00:27;27.20;;;11.30;;
22924;SDS011;11628;51.072;3.712;2023-04-01T00:02:53;29.13;;;12.88;;
22924;SDS011;11628;51.072;3.712;2023-04-01T00:05:18;28.70;;;13.02;;
22924;SDS011;11628;51.072;3.712;2023-04-01T00:07:44;26.08;;;12.35;;
22924;SDS011;11628;51.072;3.712;2023-04-01T00:10:11;23.55;;;10.63;;
22924;SDS011;11628;51.072;3.712;2023-04-01T00:12:37;22.55;;;12.10;;
22924;SDS011;11628;51.072;3.712;2023-04-01T00:15:06;26.00;;;11.55;;
22924;SDS011;11628;51.072;3.712;2023-04-01T00:17:33;23.05;;;12.02;;
22924;SDS011;11628;51.072;3.712;2023-04-01T00:19:59;24.75;;;11.60;;
22924;SDS011;11628;51.072;3.712;2023-04-01T00:22:26;28.27;;;12.07;;
22924;SDS011;11628;51.072;3.712;2023-04-01T00:24:52;24.73;;;11.50;;
22924;SDS011;11628;51.072;3.712;2023-04-01T00:27:18;28.23;;;10.55;;
22924;SDS011;11628;51.072;3.712;2023-04-01T00:29:44;26.52;;;11.13;;
22924;SDS011;11628;51.072;3.712;2023-04-01T00:32:11;30.67;;;10.23;;
22924;SDS011;11628;51.072;3.712;2023-04-01T00:34:37;24.98;;;9.60;;
22924;SDS011;11628;51.072;3.712;2023-04-01T00:37:04;25.88;;;8.18;;
22924;SDS011;11628;51.072;3.712;2023-04-01T00:39:31;21.45;;;7.55;;
22924;SDS011;11628;51.072;3.712;2023-04-01T00:41:58;15.00;;;6.75;;
22924;SDS011;11628;51.072;3.712;2023-04-01T00:44:25;21.92;;;7.10;;
22924;SDS011;11628;51.072;3.712;2023-04-01T00:46:53;17.85;;;6.45;;
22924;SDS011;11628;51.072;3.712;2023-04-01T00:49:21;17.73;;;5.72;;
22924;SDS011;11628;51.072;3.712;2023-04-01T00:51:51;12.82;;;5.05;;
22924;SDS011;11628;51.072;3.712;2023-04-01T00:54:20;13.80;;;5.50;;
22924;SDS011;11628;51.072;3.712;2023-04-01T00:56:50;12.70;;;4.35;;
22924;SDS011;11628;51.072;3.712;2023-04-01T00:59:23;16.98;;;5.25;;
22924;SDS011;11628;51.072;3.712;2023-04-01T01:01:51;14.48;;;5.35;;
22924;SDS011;11628;51.072;3.712;2023-04-01T01:04:27;14.60;;;5.30;;
22924;SDS011;11628;51.072;3.712;2023-04-01T01:07:07;14.32;;;5.15;;
22924;SDS011;11628;51.072;3.712;2023-04-01T01:15:21;18.60;;;6.93;;
22924;SDS011;11628;51.072;3.712;2023-04-01T01:20:37;20.73;;;7.85;;
22924;SDS011;11628;51.072;3.712;2023-04-01T01:23:29;25.52;;;7.47;;
22924;SDS011;11628;51.072;3.712;2023-04-01T01:26:19;18.55;;;7.97;;
22924;SDS011;11628;51.072;3.712;2023-04-01T01:29:16;22.75;;;6.95;;
22924;SDS011;11628;51.072;3.712;2023-04-01T01:34:50;24.08;;;7.03;;
22924;SDS011;11628;51.072;3.712;2023-04-01T01:37:29;18.20;;;6.72;;
22924;SDS011;11628;51.072;3.712;2023-04-01T01:40:02;24.13;;;7.57;;
22924;SDS011;11628;51.072;3.712;2023-04-01T01:42:30;20.90;;;7.30;;
22924;SDS011;11628;51.072;3.712;2023-04-01T01:45:00;27.48;;;7.50;;
22924;SDS011;11628;51.072;3.712;2023-04-01T01:47:27;23.95;;;7.65;;
22924;SDS011;11628;51.072;3.712;2023-04-01T01:49:54;23.38;;;7.38;;
22924;SDS011;11628;51.072;3.712;2023-04-01T01:52:24;23.58;;;6.80;;
22924;SDS011;11628;51.072;3.712;2023-04-01T01:54:53;21.50;;;6.63;;
22924;SDS011;11628;51.072;3.712;2023-04-01T01:57:32;20.25;;;6.63;;
22924;SDS011;11628;51.072;3.712;2023-04-01T02:00:04;20.13;;;6.75;;
22924;SDS011;11628;51.072;3.712;2023-04-01T02:02:47;17.33;;;6.45;;
22924;SDS011;11628;51.072;3.712;2023-04-01T02:05:16;17.58;;;6.60;;
22924;SDS011;11628;51.072;3.712;2023-04-01T02:07:46;13.32;;;5.65;;
22924;SDS011;11628;51.072;3.712;2023-04-01T02:10:19;18.25;;;5.55;;
22924;SDS011;11628;51.072;3.712;2023-04-01T02:12:47;15.68;;;5.35;;
22924;SDS011;11628;51.072;3.712;2023-04-01T02:15:14;15.88;;;5.93;;
22924;SDS011;11628;51.072;3.712;2023-04-01T02:17:43;10.82;;;5.53;;
22924;SDS011;11628;51.072;3.712;2023-04-01T02:22:41;14.05;;;5.47;;
22924;SDS011;11628;51.072;3.712;2023-04-01T02:25:14;16.65;;;6.05;;
22924;SDS011;11628;51.072;3.712;2023-04-01T02:27:44;13.90;;;5.93;;
22924;SDS011;11628;51.072;3.712;2023-04-01T02:30:11;16.48;;;6.28;;
22924;SDS011;11628;51.072;3.712;2023-04-01T02:32:39;16.25;;;6.90;;
22924;SDS011;11628;51.072;3.712;2023-04-01T02:35:06;18.17;;;7.30;;
22924;SDS011;11628;51.072;3.712;2023-04-01T02:37:37;24.20;;;8.27;;
22924;SDS011;11628;51.072;3.712;2023-04-01T02:40:07;18.27;;;7.57;;
22924;SDS011;11628;51.072;3.712;2023-04-01T02:42:34;22.73;;;8.40;;
22924;SDS011;11628;51.072;3.712;2023-04-01T02:45:00;17.48;;;7.53;;
22924;SDS011;11628;51.072;3.712;2023-04-01T02:47:26;19.42;;;8.48;;
22924;SDS011;11628;51.072;3.712;2023-04-01T02:49:52;20.58;;;8.00;;
22924;SDS011;11628;51.072;3.712;2023-04-01T02:52:27;19.17;;;7.40;;
22924;SDS011;11628;51.072;3.712;2023-04-01T02:54:54;19.73;;;8.18;;
22924;SDS011;11628;51.072;3.712;2023-04-01T02:57:21;21.52;;;7.80;;
22924;SDS011;11628;51.072;3.712;2023-04-01T02:59:46;17.40;;;7.15;;
22924;SDS011;11628;51.072;3.712;2023-04-01T03:02:12;21.63;;;8.18;;
22924;SDS011;11628;51.072;3.712;2023-04-01T03:04:38;18.33;;;7.57;;
22924;SDS011;11628;51.072;3.712;2023-04-01T03:07:04;18.92;;;8.82;;
22924;SDS011;11628;51.072;3.712;2023-04-01T03:09:30;21.42;;;8.02;;
22924;SDS011;11628;51.072;3.712;2023-04-01T03:11:55;22.65;;;8.23;;
22924;SDS011;11628;51.072;3.712;2023-04-01T03:14:21;20.95;;;8.75;;
22924;SDS011;11628;51.072;3.712;2023-04-01T03:16:47;14.30;;;6.68;;
22924;SDS011;11628;51.072;3.712;2023-04-01T03:19:12;14.43;;;6.82;;
22924;SDS011;11628;51.072;3.712;2023-04-01T03:21:38;15.55;;;6.82;;
22924;SDS011;11628;51.072;3.712;2023-04-01T03:24:04;14.60;;;7.47;;
22924;SDS011;11628;51.072;3.712;2023-04-01T03:26:31;18.42;;;7.75;;
22924;SDS011;11628;51.072;3.712;2023-04-01T03:28:56;10.85;;;5.63;;
22924;SDS011;11628;51.072;3.712;2023-04-01T03:31:22;14.55;;;6.95;;
22924;SDS011;11628;51.072;3.712;2023-04-01T03:33:48;12.35;;;6.05;;
22924;SDS011;11628;51.072;3.712;2023-04-01T03:36:14;10.75;;;6.10;;
22924;SDS011;11628;51.072;3.712;2023-04-01T03:38:40;12.15;;;6.35;;
22924;SDS011;11628;51.072;3.712;2023-04-01T03:41:06;10.80;;;5.90;;
22924;SDS011;11628;51.072;3.712;2023-04-01T03:43:32;15.18;;;6.80;;
22924;SDS011;11628;51.072;3.712;2023-04-01T03:45:58;11.55;;;6.10;;
22924;SDS011;11628;51.072;3.712;2023-04-01T03:48:24;13.13;;;6.15;;
22924;SDS011;11628;51.072;3.712;2023-04-01T03:50:51;10.73;;;5.07;;
22924;SDS011;11628;51.072;3.712;2023-04-01T03:53:17;7.32;;;4.50;;
22924;SDS011;11628;51.072;3.712;2023-04-01T03:55:43;8.10;;;4.53;;
22924;SDS011;11628;51.072;3.712;2023-04-01T03:58:08;8.02;;;4.22;;
22924;SDS011;11628;51.072;3.712;2023-04-01T04:00:34;9.07;;;4.53;;
22924;SDS011;11628;51.072;3.712;2023-04-01T04:03:01;7.32;;;4.10;;
22924;SDS011;11628;51.072;3.712;2023-04-01T04:05:27;8.98;;;4.78;;
22924;SDS011;11628;51.072;3.712;2023-04-01T04:07:53;6.72;;;4.60;;
22924;SDS011;11628;51.072;3.712;2023-04-01T04:10:19;6.38;;;4.55;;
22924;SDS011;11628;51.072;3.712;2023-04-01T04:12:45;9.60;;;5.20;;
22924;SDS011;11628;51.072;3.712;2023-04-01T04:15:11;8.25;;;5.55;;
22924;SDS011;11628;51.072;3.712;2023-04-01T04:17:37;9.85;;;6.13;;
22924;SDS011;11628;51.072;3.712;2023-04-01T04:20:03;9.15;;;6.43;;
22924;SDS011;11628;51.072;3.712;2023-04-01T04:22:29;9.55;;;5.32;;
22924;SDS011;11628;51.072;3.712;2023-04-01T04:24:55;13.35;;;5.93;;
22924;SDS011;11628;51.072;3.712;2023-04-01T04:27:21;9.60;;;5.40;;
22924;SDS011;11628;51.072;3.712;2023-04-01T04:29:46;9.00;;;5.30;;
22924;SDS011;11628;51.072;3.712;2023-04-01T04:32:12;9.18;;;5.38;;
22924;SDS011;11628;51.072;3.712;2023-04-01T04:34:38;10.40;;;4.82;;
22924;SDS011;11628;51.072;3.712;2023-04-01T04:37:04;9.48;;;5.38;;
22924;SDS011;11628;51.072;3.712;2023-04-01T04:39:29;10.18;;;5.47;;
22924;SDS011;11628;51.072;3.712;2023-04-01T04:41:55;7.00;;;5.15;;
22924;SDS011;11628;51.072;3.712;2023-04-01T04:44:21;10.23;;;6.32;;
22924;SDS011;11628;51.072;3.712;2023-04-01T04:46:46;12.43;;;6.97;;
22924;SDS011;11628;51.072;3.712;2023-04-01T04:49:12;12.57;;;7.18;;
22924;SDS011;11628;51.072;3.712;2023-04-01T04:51:38;12.68;;;7.32;;
22924;SDS011;11628;51.072;3.712;2023-04-01T04:54:04;17.63;;;8.63;;
22924;SDS011;11628;51.072;3.712;2023-04-01T04:56:31;18.40;;;9.23;;
22924;SDS011;11628;51.072;3.712;2023-04-01T04:58:57;16.80;;;9.43;;
22924;SDS011;11628;51.072;3.712;2023-04-01T05:01:23;18.30;;;9.13;;
22924;SDS011;11628;51.072;3.712;2023-04-01T05:03:49;11.55;;;6.13;;
22924;SDS011;11628;51.072;3.712;2023-04-01T05:06:17;14.90;;;8.45;;
22924;SDS011;11628;51.072;3.712;2023-04-01T05:08:43;13.98;;;8.20;;
22924;SDS011;11628;51.072;3.712;2023-04-01T05:11:10;16.48;;;9.38;;
22924;SDS011;11628;51.072;3.712;2023-04-01T05:13:38;15.98;;;8.98;;
22924;SDS011;11628;51.072;3.712;2023-04-01T05:16:07;16.80;;;8.77;;
22924;SDS011;11628;51.072;3.712;2023-04-01T05:18:38;13.60;;;8.48;;
22924;SDS011;11628;51.072;3.712;2023-04-01T05:21:03;11.32;;;8.30;;
22924;SDS011;11628;51.072;3.712;2023-04-01T05:23:30;15.57;;;9.02;;
22924;SDS011;11628;51.072;3.712;2023-04-01T05:25:57;15.52;;;7.45;;
22924;SDS011;11628;51.072;3.712;2023-04-01T05:28:23;12.88;;;6.95;;
22924;SDS011;11628;51.072;3.712;2023-04-01T05:30:48;12.10;;;7.57;;
22924;SDS011;11628;51.072;3.712;2023-04-01T05:33:14;15.50;;;7.63;;
22924;SDS011;11628;51.072;3.712;2023-04-01T05:35:40;12.15;;;7.63;;
22924;SDS011;11628;51.072;3.712;2023-04-01T05:38:06;10.93;;;6.93;;
22924;SDS011;11628;51.072;3.712;2023-04-01T05:40:32;13.20;;;7.63;;
22924;SDS011;11628;51.072;3.712;2023-04-01T05:42:58;11.75;;;7.45;;
22924;SDS011;11628;51.072;3.712;2023-04-01T05:45:25;8.68;;;6.00;;
22924;SDS011;11628;51.072;3.712;2023-04-01T05:47:51;12.60;;;6.32;;
22924;SDS011;11628;51.072;3.712;2023-04-01T05:50:17;7.28;;;5.45;;
22924;SDS011;11628;51.072;3.712;2023-04-01T05:52:43;9.05;;;4.47;;
22924;SDS011;11628;51.072;3.712;2023-04-01T05:55:09;9.20;;;4.97;;
22924;SDS011;11628;51.072;3.712;2023-04-01T05:57:35;8.88;;;4.93;;
22924;SDS011;11628;51.072;3.712;2023-04-01T06:00:01;8.77;;;4.07;;
22924;SDS011;11628;51.072;3.712;2023-04-01T06:02:27;11.20;;;4.45;;
22924;SDS011;11628;51.072;3.712;2023-04-01T06:04:54;8.38;;;3.80;;
22924;SDS011;11628;51.072;3.712;2023-04-01T06:07:37;5.10;;;3.85;;
22924;SDS011;11628;51.072;3.712;2023-04-01T06:10:05;4.43;;;3.47;;
22924;SDS011;11628;51.072;3.712;2023-04-01T06:12:50;5.57;;;3.70;;
22924;SDS011;11628;51.072;3.712;2023-04-01T06:15:28;4.95;;;3.10;;
22924;SDS011;11628;51.072;3.712;2023-04-01T06:26:37;6.43;;;3.95;;
22924;SDS011;11628;51.072;3.712;2023-04-01T06:34:55;5.63;;;3.28;;
22924;SDS011;11628;51.072;3.712;2023-04-01T06:46:02;4.07;;;2.60;;
22924;SDS011;11628;51.072;3.712;2023-04-01T06:48:39;4.95;;;2.88;;
22924;SDS011;11628;51.072;3.712;2023-04-01T06:54:26;2.50;;;2.05;;
22924;SDS011;11628;51.072;3.712;2023-04-01T06:56:59;3.33;;;2.15;;
22924;SDS011;11628;51.072;3.712;2023-04-01T06:59:32;4.18;;;2.00;;
22924;SDS011;11628;51.072;3.712;2023-04-01T07:02:02;5.50;;;2.10;;
22924;SDS011;11628;51.072;3.712;2023-04-01T07:04:44;3.25;;;2.10;;
22924;SDS011;11628;51.072;3.712;2023-04-01T07:07:15;4.57;;;2.03;;
22924;SDS011;11628;51.072;3.712;2023-04-01T07:10:04;5.43;;;1.83;;
22924;SDS011;11628;51.072;3.712;2023-04-01T07:13:19;2.05;;;1.50;;
22924;SDS011;11628;51.072;3.712;2023-04-01T07:15:28;3.72;;;1.50;;
22924;SDS011;11628;51.072;3.712;2023-04-01T07:18:17;3.03;;;1.33;;
22924;SDS011;11628;51.072;3.712;2023-04-01T07:20:47;4.22;;;1.52;;
22924;SDS011;11628;51.072;3.712;2023-04-01T07:23:26;4.80;;;1.40;;
22924;SDS011;11628;51.072;3.712;2023-04-01T07:26:06;3.80;;;1.52;;
22924;SDS011;11628;51.072;3.712;2023-04-01T07:28:44;2.38;;;1.30;;
22924;SDS011;11628;51.072;3.712;2023-04-01T07:33:45;2.08;;;1.40;;
22924;SDS011;11628;51.072;3.712;2023-04-01T07:36:45;2.28;;;1.27;;
22924;SDS011;11628;51.072;3.712;2023-04-01T07:39:17;2.55;;;1.63;;
22924;SDS011;11628;51.072;3.712;2023-04-01T07:44:47;2.05;;;1.55;;
22924;SDS011;11628;51.072;3.712;2023-04-01T07:50:01;3.65;;;1.98;;
22924;SDS011;11628;51.072;3.712;2023-04-01T07:52:53;3.70;;;1.70;;
22924;SDS011;11628;51.072;3.712;2023-04-01T07:58:27;2.33;;;1.92;;
22924;SDS011;11628;51.072;3.712;2023-04-01T08:06:45;7.03;;;2.42;;
22924;SDS011;11628;51.072;3.712;2023-04-01T08:22:53;6.13;;;2.80;;
22924;SDS011;11628;51.072;3.712;2023-04-01T08:25:26;6.00;;;2.92;;
22924;SDS011;11628;51.072;3.712;2023-04-01T08:30:44;8.00;;;3.13;;
22924;SDS011;11628;51.072;3.712;2023-04-01T08:33:27;6.43;;;3.78;;
22924;SDS011;11628;51.072;3.712;2023-04-01T08:41:07;7.97;;;3.50;;
22924;SDS011;11628;51.072;3.712;2023-04-01T09:02:39;6.40;;;2.40;;
22924;SDS011;11628;51.072;3.712;2023-04-01T09:08:01;6.15;;;2.08;;
22924;SDS011;11628;51.072;3.712;2023-04-01T09:16:13;4.15;;;1.63;;
22924;SDS011;11628;51.072;3.712;2023-04-01T09:24:40;4.28;;;1.10;;
22924;SDS011;11628;51.072;3.712;2023-04-01T09:27:36;2.08;;;1.20;;
22924;SDS011;11628;51.072;3.712;2023-04-01T09:35:50;3.53;;;1.20;;
22924;SDS011;11628;51.072;3.712;2023-04-01T09:38:48;3.33;;;1.85;;
22924;SDS011;11628;51.072;3.712;2023-04-01T09:41:39;3.47;;;1.63;;
22924;SDS011;11628;51.072;3.712;2023-04-01T09:50:10;3.17;;;2.00;;
22924;SDS011;11628;51.072;3.712;2023-04-01T09:53:02;2.83;;;1.00;;
22924;SDS011;11628;51.072;3.712;2023-04-01T10:01:02;4.03;;;1.70;;
22924;SDS011;11628;51.072;3.712;2023-04-01T10:12:49;3.65;;;1.35;;
22924;SDS011;11628;51.072;3.712;2023-04-01T10:26:48;3.63;;;2.42;;
22924;SDS011;11628;51.072;3.712;2023-04-01T10:32:15;0.75;;;0.70;;
22924;SDS011;11628;51.072;3.712;2023-04-01T10:40:22;2.67;;;1.00;;
22924;SDS011;11628;51.072;3.712;2023-04-01T11:14:44;2.50;;;1.50;;
22924;SDS011;11628;51.072;3.712;2023-04-01T11:20:03;2.08;;;1.23;;
22924;SDS011;11628;51.072;3.712;2023-04-01T11:26:07;3.00;;;1.45;;
22924;SDS011;11628;51.072;3.712;2023-04-01T11:31:35;2.85;;;1.90;;
22924;SDS011;11628;51.072;3.712;2023-04-01T11:40:37;2.20;;;1.42;;
22924;SDS011;11628;51.072;3.712;2023-04-01T11:43:41;4.53;;;1.83;;
22924;SDS011;11628;51.072;3.712;2023-04-01T11:46:39;3.05;;;2.03;;
22924;SDS011;11628;51.072;3.712;2023-04-01T11:52:14;2.37;;;1.60;;
22924;SDS011;11628;51.072;3.712;2023-04-01T12:00:20;5.20;;;2.17;;
22924;SDS011;11628;51.072;3.712;2023-04-01T12:13:50;5.78;;;1.73;;
22924;SDS011;11628;51.072;3.712;2023-04-01T12:16:29;3.42;;;1.45;;
22924;SDS011;11628;51.072;3.712;2023-04-01T12:19:26;2.80;;;1.60;;
22924;SDS011;11628;51.072;3.712;2023-04-01T12:41:32;4.13;;;1.55;;
22924;SDS011;11628;51.072;3.712;2023-04-01T12:50:09;2.95;;;0.80;;
22924;SDS011;11628;51.072;3.712;2023-04-01T12:52:58;2.88;;;1.10;;
22924;SDS011;11628;51.072;3.712;2023-04-01T12:55:48;3.92;;;1.58;;
22924;SDS011;11628;51.072;3.712;2023-04-01T13:15:26;2.25;;;1.10;;
22924;SDS011;11628;51.072;3.712;2023-04-01T13:29:14;3.95;;;2.28;;
22924;SDS011;11628;51.072;3.712;2023-04-01T13:34:32;2.83;;;1.52;;
22924;SDS011;11628;51.072;3.712;2023-04-01T13:42:40;1.67;;;1.10;;
22924;SDS011;11628;51.072;3.712;2023-04-01T13:45:26;3.33;;;1.10;;
22924;SDS011;11628;51.072;3.712;2023-04-01T13:48:26;3.95;;;1.50;;
22924;SDS011;11628;51.072;3.712;2023-04-01T13:56:40;3.10;;;1.50;;
22924;SDS011;11628;51.072;3.712;2023-04-01T14:02:22;1.58;;;1.00;;
22924;SDS011;11628;51.072;3.712;2023-04-01T14:05:20;5.22;;;2.65;;
22924;SDS011;11628;51.072;3.712;2023-04-01T14:10:55;2.28;;;0.70;;
22924;SDS011;11628;51.072;3.712;2023-04-01T14:29:52;3.47;;;1.30;;
22924;SDS011;11628;51.072;3.712;2023-04-01T14:44:15;3.50;;;1.45;;
22924;SDS011;11628;51.072;3.712;2023-04-01T14:49:46;2.67;;;1.08;;
22924;SDS011;11628;51.072;3.712;2023-04-01T14:52:21;4.15;;;1.13;;
22924;SDS011;11628;51.072;3.712;2023-04-01T14:54:52;3.00;;;1.10;;
22924;SDS011;11628;51.072;3.712;2023-04-01T15:00:00;1.95;;;1.38;;
22924;SDS011;11628;51.072;3.712;2023-04-01T15:08:21;3.10;;;1.17;;
22924;SDS011;11628;51.072;3.712;2023-04-01T15:13:42;1.52;;;1.00;;
22924;SDS011;11628;51.072;3.712;2023-04-01T15:16:19;2.75;;;1.10;;
22924;SDS011;11628;51.072;3.712;2023-04-01T15:18:56;4.90;;;2.83;;
22924;SDS011;11628;51.072;3.712;2023-04-01T15:29:58;6.75;;;1.40;;
22924;SDS011;11628;51.072;3.712;2023-04-01T15:32:32;3.65;;;1.40;;
22924;SDS011;11628;51.072;3.712;2023-04-01T15:40:24;4.13;;;1.05;;
22924;SDS011;11628;51.072;3.712;2023-04-01T15:48:24;4.65;;;2.05;;
22924;SDS011;11628;51.072;3.712;2023-04-01T15:51:11;3.25;;;1.40;;
22924;SDS011;11628;51.072;3.712;2023-04-01T15:53:56;4.95;;;1.20;;
22924;SDS011;11628;51.072;3.712;2023-04-01T16:02:23;4.80;;;1.90;;
22924;SDS011;11628;51.072;3.712;2023-04-01T16:05:04;4.45;;;1.83;;
22924;SDS011;11628;51.072;3.712;2023-04-01T16:10:37;3.83;;;1.40;;
22924;SDS011;11628;51.072;3.712;2023-04-01T16:13:24;4.13;;;1.50;;
22924;SDS011;11628;51.072;3.712;2023-04-01T16:16:28;4.90;;;1.38;;
22924;SDS011;11628;51.072;3.712;2023-04-01T16:27:06;5.32;;;2.35;;
22924;SDS011;11628;51.072;3.712;2023-04-01T16:29:49;5.53;;;1.50;;
22924;SDS011;11628;51.072;3.712;2023-04-01T16:36:00;4.35;;;2.00;;
22924;SDS011;11628;51.072;3.712;2023-04-01T16:38:55;5.15;;;3.17;;
22924;SDS011;11628;51.072;3.712;2023-04-01T16:41:33;3.70;;;2.20;;
22924;SDS011;11628;51.072;3.712;2023-04-01T16:47:21;8.18;;;4.55;;
22924;SDS011;11628;51.072;3.712;2023-04-01T16:49:54;6.47;;;4.30;;
22924;SDS011;11628;51.072;3.712;2023-04-01T16:52:42;4.00;;;2.78;;
22924;SDS011;11628;51.072;3.712;2023-04-01T16:55:52;6.53;;;3.80;;
22924;SDS011;11628;51.072;3.712;2023-04-01T16:58:10;13.15;;;6.57;;
22924;SDS011;11628;51.072;3.712;2023-04-01T17:00:49;11.38;;;6.15;;
22924;SDS011;11628;51.072;3.712;2023-04-01T17:03:43;9.80;;;5.93;;
22924;SDS011;11628;51.072;3.712;2023-04-01T17:06:17;11.35;;;7.38;;
22924;SDS011;11628;51.072;3.712;2023-04-01T17:09:01;7.22;;;4.68;;
22924;SDS011;11628;51.072;3.712;2023-04-01T17:22:37;5.72;;;4.10;;
22924;SDS011;11628;51.072;3.712;2023-04-01T17:28:27;10.35;;;5.80;;
22924;SDS011;11628;51.072;3.712;2023-04-01T17:36:26;5.95;;;3.20;;
22924;SDS011;11628;51.072;3.712;2023-04-01T17:41:46;14.32;;;9.05;;
22924;SDS011;11628;51.072;3.712;2023-04-01T17:53:03;9.35;;;5.32;;
22924;SDS011;11628;51.072;3.712;2023-04-01T17:55:41;11.80;;;5.57;;
22924;SDS011;11628;51.072;3.712;2023-04-01T18:16:59;25.75;;;14.02;;
22924;SDS011;11628;51.072;3.712;2023-04-01T18:22:34;23.10;;;12.75;;
22924;SDS011;11628;51.072;3.712;2023-04-01T18:28:05;21.13;;;11.52;;
22924;SDS011;11628;51.072;3.712;2023-04-01T18:33:07;22.15;;;13.02;;
22924;SDS011;11628;51.072;3.712;2023-04-01T18:38:40;22.17;;;12.18;;
22924;SDS011;11628;51.072;3.712;2023-04-01T18:41:15;25.73;;;13.40;;
22924;SDS011;11628;51.072;3.712;2023-04-01T18:44:13;32.25;;;19.00;;
22924;SDS011;11628;51.072;3.712;2023-04-01T18:46:39;36.10;;;22.00;;
22924;SDS011;11628;51.072;3.712;2023-04-01T18:49:25;36.63;;;18.55;;
22924;SDS011;11628;51.072;3.712;2023-04-01T18:51:58;31.70;;;14.90;;
22924;SDS011;11628;51.072;3.712;2023-04-01T18:54:39;35.00;;;14.70;;
22924;SDS011;11628;51.072;3.712;2023-04-01T18:57:15;27.38;;;15.20;;
22924;SDS011;11628;51.072;3.712;2023-04-01T19:10:22;30.70;;;12.70;;
22924;SDS011;11628;51.072;3.712;2023-04-01T19:13:13;32.28;;;14.30;;
22924;SDS011;11628;51.072;3.712;2023-04-01T19:15:52;26.73;;;12.15;;
22924;SDS011;11628;51.072;3.712;2023-04-01T19:18:35;26.92;;;12.18;;
22924;SDS011;11628;51.072;3.712;2023-04-01T19:37:47;30.80;;;10.15;;
22924;SDS011;11628;51.072;3.712;2023-04-01T19:51:27;20.90;;;7.82;;
22924;SDS011;11628;51.072;3.712;2023-04-01T19:59:34;26.08;;;9.35;;
22924;SDS011;11628;51.072;3.712;2023-04-01T20:21:16;27.70;;;12.05;;
22924;SDS011;11628;51.072;3.712;2023-04-01T20:23:59;24.58;;;10.85;;
22924;SDS011;11628;51.072;3.712;2023-04-01T20:26:50;22.58;;;10.90;;
22924;SDS011;11628;51.072;3.712;2023-04-01T20:29:36;29.88;;;12.40;;
22924;SDS011;11628;51.072;3.712;2023-04-01T20:45:48;33.35;;;13.93;;
22924;SDS011;11628;51.072;3.712;2023-04-01T20:48:26;34.17;;;14.55;;
22924;SDS011;11628;51.072;3.712;2023-04-01T20:51:14;33.67;;;16.52;;
22924;SDS011;11628;51.072;3.712;2023-04-01T20:53:43;38.38;;;16.52;;
22924;SDS011;11628;51.072;3.712;2023-04-01T21:01:33;33.25;;;14.57;;
22924;SDS011;11628;51.072;3.712;2023-04-01T21:07:01;33.75;;;15.05;;
22924;SDS011;11628;51.072;3.712;2023-04-01T21:20:28;40.75;;;17.30;;
22924;SDS011;11628;51.072;3.712;2023-04-01T21:34:34;43.78;;;18.20;;
22924;SDS011;11628;51.072;3.712;2023-04-01T21:40:09;39.70;;;16.27;;
22924;SDS011;11628;51.072;3.712;2023-04-01T21:43:07;37.70;;;16.35;;
22924;SDS011;11628;51.072;3.712;2023-04-01T22:05:10;38.55;;;17.13;;
22924;SDS011;11628;51.072;3.712;2023-04-01T22:13:32;38.85;;;17.13;;
22924;SDS011;11628;51.072;3.712;2023-04-01T22:35:43;42.10;;;17.13;;
22924;SDS011;11628;51.072;3.712;2023-04-01T22:44:05;42.47;;;16.85;;
22924;SDS011;11628;51.072;3.712;2023-04-01T22:46:55;40.38;;;17.23;;
22924;SDS011;11628;51.072;3.712;2023-04-01T22:49:46;38.28;;;17.60;;
22924;SDS011;11628;51.072;3.712;2023-04-01T22:55:08;41.55;;;18.98;;
22924;SDS011;11628;51.072;3.712;2023-04-01T23:05:31;33.42;;;18.80;;
22924;SDS011;11628;51.072;3.712;2023-04-01T23:08:07;41.08;;;19.45;;
22924;SDS011;11628;51.072;3.712;2023-04-01T23:10:54;31.73;;;18.40;;
22924;SDS011;11628;51.072;3.712;2023-04-01T23:13:29;40.42;;;20.33;;
22924;SDS011;11628;51.072;3.712;2023-04-01T23:16:02;37.72;;;19.25;;
22924;SDS011;11628;51.072;3.712;2023-04-01T23:18:47;32.38;;;19.75;;
22924;SDS011;11628;51.072;3.712;2023-04-01T23:21:29;39.03;;;20.10;;
22924;SDS011;11628;51.072;3.712;2023-04-01T23:26:35;40.72;;;21.20;;
22924;SDS011;11628;51.072;3.712;2023-04-01T23:29:09;38.72;;;21.90;;
22924;SDS011;11628;51.072;3.712;2023-04-01T23:31:41;40.72;;;23.98;;
22924;SDS011;11628;51.072;3.712;2023-04-01T23:36:37;48.35;;;28.23;;
22924;SDS011;11628;51.072;3.712;2023-04-01T23:39:13;41.03;;;26.30;;
22924;SDS011;11628;51.072;3.712;2023-04-01T23:41:55;38.42;;;26.73;;
22924;SDS011;11628;51.072;3.712;2023-04-01T23:44:25;45.20;;;29.33;;
22924;SDS011;11628;51.072;3.712;2023-04-01T23:46:53;42.03;;;30.15;;
22924;SDS011;11628;51.072;3.712;2023-04-01T23:49:24;39.35;;;29.38;;
22924;SDS011;11628;51.072;3.712;2023-04-01T23:51:59;42.47;;;28.98;;
22924;SDS011;11628;51.072;3.712;2023-04-01T23:57:32;41.15;;;28.95;;
